createdAt,value
2016-05-25T00:00:53.844Z,87.8
2016-05-25T00:01:40.222Z,87.41
2016-05-25T00:02:39.724Z,87.7
2016-05-25T00:03:39.586Z,87.9
2016-05-25T00:04:39.761Z,87.32
2016-05-25T00:05:39.795Z,87.41
2016-05-25T00:06:39.658Z,88.04
2016-05-25T00:07:39.832Z,87.13
2016-05-25T00:08:39.866Z,88.43
2016-05-25T00:09:39.885Z,87.56
2016-05-25T00:10:39.746Z,88.04
2016-05-25T00:11:39.936Z,88.13
2016-05-25T00:12:39.954Z,87.27
2016-05-25T00:13:39.988Z,87.95
2016-05-25T00:14:40.007Z,88.04
2016-05-25T00:15:40.025Z,88.71
2016-05-25T00:16:54.232Z,88.23
2016-05-25T00:17:40.077Z,87.27
2016-05-25T00:18:40.096Z,87.47
2016-05-25T00:19:40.129Z,88.37
2016-05-25T00:20:40.148Z,87.32
2016-05-25T00:21:40.167Z,86.94
2016-05-25T00:22:40.184Z,88.18
2016-05-25T00:23:40.218Z,88.33
2016-05-25T00:24:40.081Z,88.76
2016-05-25T00:25:40.271Z,88.43
2016-05-25T00:26:40.133Z,87.95
2016-05-25T00:28:40.186Z,88.56
2016-05-25T00:29:40.376Z,87.76
2016-05-25T00:30:40.378Z,87.56
2016-05-25T00:31:40.428Z,86.94
2016-05-25T00:32:54.617Z,88.47
2016-05-25T00:33:40.449Z,88.23
2016-05-25T00:34:40.483Z,88.9
2016-05-25T00:35:40.500Z,88.56
2016-05-25T00:36:40.519Z,88.13
2016-05-25T00:37:40.552Z,88.9
2016-05-25T00:38:40.572Z,88.81
2016-05-25T00:39:40.606Z,88.81
2016-05-25T00:40:40.468Z,89.09
2016-05-25T00:41:40.486Z,88.43
2016-05-25T00:42:40.676Z,88.23
2016-05-25T00:43:40.694Z,88.62
2016-05-25T00:44:40.712Z,88.52
2016-05-25T00:45:40.746Z,88.62
2016-05-25T00:46:40.796Z,88.62
2016-05-25T00:47:40.799Z,88.13
2016-05-25T00:48:54.990Z,88.71
2016-05-25T00:49:40.835Z,88.81
2016-05-25T00:50:40.870Z,88.33
2016-05-25T00:51:40.887Z,89
2016-05-25T00:52:40.921Z,89.58
2016-05-25T00:53:40.924Z,89.19
2016-05-25T00:54:40.958Z,89.67
2016-05-25T00:55:40.993Z,89.29
2016-05-25T00:56:41.011Z,88.9
2016-05-25T00:57:41.028Z,89.09
2016-05-25T00:58:40.891Z,89.09
2016-05-25T00:59:40.909Z,89.67
2016-05-25T01:01:40.961Z,88.9
2016-05-25T01:02:40.995Z,89.38
2016-05-25T01:03:55.358Z,89.19
2016-05-25T01:04:41.188Z,88.81
2016-05-25T01:05:41.222Z,89
2016-05-25T01:06:41.240Z,89.38
2016-05-25T01:07:41.102Z,88.23
2016-05-25T01:08:41.293Z,88.71
2016-05-25T01:09:41.311Z,89.67
2016-05-25T01:10:41.330Z,90.05
2016-05-25T01:13:41.415Z,89.67
2016-05-25T01:14:41.277Z,89.29
2016-05-25T01:16:41.485Z,89.19
2016-05-25T01:17:41.520Z,89.76
2016-05-25T01:18:41.523Z,89.86
2016-05-25T01:19:41.557Z,89.76
2016-05-25T01:20:41.575Z,89.76
2016-05-25T01:21:41.593Z,89.76
2016-05-25T01:22:41.612Z,90.34
2016-05-25T01:23:41.661Z,89.29
2016-05-25T01:24:41.679Z,90.44
2016-05-25T01:25:41.698Z,90.05
2016-05-25T01:26:41.716Z,89.86
2016-05-25T01:27:41.735Z,90.15
2016-05-25T01:28:41.768Z,90.24
2016-05-25T01:29:41.803Z,89.19
2016-05-25T01:30:41.805Z,89.76
2016-05-25T01:31:41.839Z,90.24
2016-05-25T01:32:41.858Z,89.29
2016-05-25T01:33:41.875Z,90.15
2016-05-25T01:34:41.753Z,90.44
2016-05-25T01:35:56.116Z,90.34
2016-05-25T01:36:41.946Z,90.63
2016-05-25T01:37:41.980Z,90.34
2016-05-25T01:38:42.013Z,90.48
2016-05-25T01:39:42.016Z,90.63
2016-05-25T01:40:42.051Z,90.67
2016-05-25T01:41:42.085Z,90.58
2016-05-25T01:42:41.947Z,90.82
2016-05-25T01:43:42.121Z,90.91
2016-05-25T01:44:42.155Z,90.82
2016-05-25T01:45:42.174Z,90.82
2016-05-25T01:46:42.035Z,90.53
2016-05-25T01:47:42.226Z,90.77
2016-05-25T01:48:42.244Z,90.96
2016-05-25T01:49:42.263Z,91.53
2016-05-25T01:50:42.281Z,91.25
2016-05-25T01:51:56.486Z,91.35
2016-05-25T01:52:42.333Z,91.53
2016-05-25T01:53:42.367Z,91.49
2016-05-25T01:54:42.385Z,91.25
2016-05-25T01:55:42.403Z,90.91
2016-05-25T01:56:42.437Z,91.53
2016-05-25T01:57:42.456Z,91.63
2016-05-25T01:58:42.489Z,91.3
2016-05-25T01:59:42.492Z,91.2
2016-05-25T02:00:42.526Z,90.91
2016-05-25T02:01:42.545Z,90.72
2016-05-25T02:02:42.595Z,90.82
2016-05-25T02:03:42.597Z,91.39
2016-05-25T02:04:42.615Z,91.06
2016-05-25T02:05:42.633Z,91.11
2016-05-25T02:06:42.667Z,91.01
2016-05-25T02:07:56.873Z,91.53
2016-05-25T02:08:42.704Z,91.92
2016-05-25T02:09:42.582Z,91.63
2016-05-25T02:10:42.772Z,91.35
2016-05-25T02:11:42.619Z,90.91
2016-05-25T02:12:42.809Z,91.49
2016-05-25T02:13:42.843Z,91.49
2016-05-25T02:14:42.861Z,91.2
2016-05-25T02:15:42.879Z,91.35
2016-05-25T02:16:42.913Z,91.53
2016-05-25T02:19:42.968Z,92.3
2016-05-25T02:20:43.002Z,92.3
2016-05-25T02:21:42.864Z,92.02
2016-05-25T02:22:43.038Z,91.73
2016-05-25T02:23:57.245Z,91.83
2016-05-25T02:24:43.091Z,91.83
2016-05-25T02:25:42.953Z,92.3
2016-05-25T02:26:43.128Z,91.53
2016-05-25T02:27:43.161Z,91.35
2016-05-25T02:28:43.179Z,91.73
2016-05-25T02:29:43.213Z,91.16
2016-05-25T02:30:43.231Z,91.73
2016-05-25T02:32:43.284Z,91.25
2016-05-25T02:33:43.303Z,90.87
2016-05-25T02:34:43.321Z,91.73
2016-05-25T02:35:43.355Z,91.73
2016-05-25T02:36:43.373Z,91.63
2016-05-25T02:37:43.391Z,91.25
2016-05-25T02:38:57.597Z,91.53
2016-05-25T02:39:43.443Z,91.53
2016-05-25T02:40:43.462Z,91.16
2016-05-25T02:41:43.496Z,91.73
2016-05-25T02:42:43.514Z,91.63
2016-05-25T02:43:43.377Z,92.07
2016-05-25T02:44:43.566Z,92.21
2016-05-25T02:45:43.585Z,91.35
2016-05-25T02:46:44.228Z,91.35
2016-05-25T02:47:43.637Z,91.16
2016-05-25T02:50:43.707Z,91.35
2016-05-25T02:51:43.727Z,90.58
2016-05-25T02:52:43.743Z,90.96
2016-05-25T02:53:43.622Z,91.44
2016-05-25T02:54:43.640Z,91.06
2016-05-25T02:55:43.815Z,91.53
2016-05-25T02:56:43.849Z,91.44
2016-05-25T02:57:43.867Z,91.44
2016-05-25T02:58:43.729Z,91.35
2016-05-25T02:59:43.762Z,90.96
2016-05-25T03:00:43.937Z,91.44
2016-05-25T03:01:43.800Z,91.35
2016-05-25T03:02:45.037Z,90.87
2016-05-25T03:03:44.023Z,91.35
2016-05-25T03:04:44.042Z,90.87
2016-05-25T03:05:44.060Z,90.96
2016-05-25T03:06:44.095Z,91.53
2016-05-25T03:07:44.097Z,90.87
2016-05-25T03:08:44.131Z,91.3
2016-05-25T03:09:44.149Z,91.49
2016-05-25T03:10:58.355Z,91.59
2016-05-25T03:11:44.201Z,91.3
2016-05-25T03:12:44.220Z,90.82
2016-05-25T03:13:44.238Z,91.3
2016-05-25T03:14:44.272Z,91.78
2016-05-25T03:15:44.290Z,91.11
2016-05-25T03:16:44.324Z,91.3
2016-05-25T03:17:44.343Z,92.25
2016-05-25T03:18:44.361Z,91.78
2016-05-25T03:19:44.395Z,91.49
2016-05-25T03:20:44.413Z,91.78
2016-05-25T03:21:44.432Z,91.02
2016-05-25T03:22:44.294Z,91.2
2016-05-25T03:23:44.484Z,91.11
2016-05-25T03:24:44.502Z,90.92
2016-05-25T03:25:44.537Z,91.02
2016-05-25T03:26:58.727Z,90.63
2016-05-25T03:27:44.573Z,90.77
2016-05-25T03:28:44.591Z,90.73
2016-05-25T03:29:44.468Z,90.82
2016-05-25T03:30:44.643Z,90.63
2016-05-25T03:32:44.680Z,90.73
2016-05-25T03:33:44.714Z,90.82
2016-05-25T03:34:44.732Z,91.2
2016-05-25T03:35:44.750Z,90.73
2016-05-25T03:36:44.784Z,90.73
2016-05-25T03:37:44.803Z,91.11
2016-05-25T03:38:44.836Z,90.73
2016-05-25T03:39:44.855Z,91.02
2016-05-25T03:40:44.717Z,91.02
2016-05-25T03:41:44.907Z,90.82
2016-05-25T03:42:59.113Z,90.63
2016-05-25T03:43:44.944Z,90.25
2016-05-25T03:44:44.977Z,90.16
2016-05-25T03:45:44.996Z,90.34
2016-05-25T03:46:45.030Z,90.82
2016-05-25T03:47:44.892Z,91.11
2016-05-25T03:50:45.104Z,90.73
2016-05-25T03:52:45.171Z,89.62
2016-05-25T03:53:45.190Z,90.1
2016-05-25T03:54:45.207Z,90.1
2016-05-25T03:55:45.243Z,89.81
2016-05-25T03:56:45.245Z,90.34
2016-05-25T03:57:45.279Z,90.44
2016-05-25T03:58:59.485Z,89.91
2016-05-25T03:59:45.332Z,89.72
2016-05-25T04:00:45.349Z,89.81
2016-05-25T04:01:45.867Z,90.73
2016-05-25T04:02:45.402Z,90.63
2016-05-25T04:03:45.420Z,90.1
2016-05-25T04:04:45.438Z,90.48
2016-05-25T04:05:45.473Z,90.48
2016-05-25T04:06:45.490Z,90.73
2016-05-25T04:07:45.508Z,90.53
2016-05-25T04:08:45.543Z,90.25
2016-05-25T04:09:45.561Z,90.34
2016-05-25T04:10:45.579Z,90.16
2016-05-25T04:11:45.456Z,90.92
2016-05-25T04:12:45.647Z,90.53
2016-05-25T04:13:59.837Z,90.53
2016-05-25T04:14:45.684Z,90.82
2016-05-25T04:15:45.702Z,90.53
2016-05-25T04:16:46.189Z,89.96
2016-05-25T04:18:45.772Z,90.53
2016-05-25T04:19:45.814Z,90.53
2016-05-25T04:20:45.872Z,90.92
2016-05-25T04:21:45.914Z,89.91
2016-05-25T04:22:45.956Z,90.1
2016-05-25T04:23:46.014Z,90.73
2016-05-25T04:24:46.040Z,90.34
2016-05-25T04:25:46.068Z,90.44
2016-05-25T04:26:45.938Z,90.06
2016-05-25T04:27:45.981Z,90.34
2016-05-25T04:28:46.163Z,89.72
2016-05-25T04:29:46.185Z,89.67
2016-05-25T04:30:46.222Z,89.67
2016-05-25T04:31:46.103Z,89.91
2016-05-25T04:32:46.280Z,90.16
2016-05-25T04:33:46.146Z,90.63
2016-05-25T04:34:46.321Z,90.63
2016-05-25T04:35:46.340Z,90.82
2016-05-25T04:36:46.376Z,91.11
2016-05-25T04:37:46.395Z,90.53
2016-05-25T04:38:46.416Z,90.06
2016-05-25T04:39:46.294Z,90.82
2016-05-25T04:40:46.467Z,90.63
2016-05-25T04:41:46.331Z,91.11
2016-05-25T04:42:46.521Z,90.73
2016-05-25T04:43:46.555Z,90.92
2016-05-25T04:44:46.559Z,90.73
2016-05-25T04:46:00.764Z,90.01
2016-05-25T04:46:46.610Z,90.39
2016-05-25T04:47:46.629Z,89.91
2016-05-25T04:48:46.506Z,90.2
2016-05-25T04:49:46.681Z,89.15
2016-05-25T04:50:46.715Z,89.34
2016-05-25T04:51:46.733Z,89.72
2016-05-25T04:52:46.751Z,90.2
2016-05-25T04:54:46.804Z,89.15
2016-05-25T04:55:46.853Z,89.24
2016-05-25T04:57:46.874Z,89.24
2016-05-25T04:58:46.736Z,89.05
2016-05-25T04:59:46.942Z,89.62
2016-05-25T05:00:46.930Z,89.24
2016-05-25T05:02:01.838Z,89.15
2016-05-25T05:02:46.997Z,88.52
2016-05-25T05:03:47.016Z,89.62
2016-05-25T05:04:47.033Z,88.67
2016-05-25T05:05:47.068Z,88.57
2016-05-25T05:06:47.070Z,88.04
2016-05-25T05:07:47.120Z,88.13
2016-05-25T05:08:47.123Z,88.23
2016-05-25T05:09:47.156Z,87.33
2016-05-25T05:10:47.174Z,87.95
2016-05-25T05:11:47.193Z,88.13
2016-05-25T05:12:47.055Z,87.56
2016-05-25T05:13:47.245Z,88.48
2016-05-25T05:14:47.264Z,88.09
2016-05-25T05:15:47.298Z,88.67
2016-05-25T05:16:47.316Z,87.9
2016-05-25T05:18:01.522Z,88.19
2016-05-25T05:18:47.368Z,87.9
2016-05-25T05:19:47.386Z,87.9
2016-05-25T05:21:47.439Z,88
2016-05-25T05:22:47.457Z,88.67
2016-05-25T05:25:47.528Z,88.67
2016-05-25T05:26:47.547Z,88.19
2016-05-25T05:27:47.424Z,87.9
2016-05-25T05:29:47.616Z,88.57
2016-05-25T05:30:47.650Z,88.23
2016-05-25T05:31:47.700Z,88.19
2016-05-25T05:32:47.688Z,88.29
2016-05-25T05:34:01.893Z,88.19
2016-05-25T05:34:47.739Z,88.76
2016-05-25T05:35:47.758Z,88
2016-05-25T05:36:47.777Z,88.38
2016-05-25T05:37:47.810Z,88.48
2016-05-25T05:38:47.829Z,88.29
2016-05-25T05:39:47.862Z,88.29
2016-05-25T05:41:47.899Z,88.19
2016-05-25T05:42:47.932Z,87.81
2016-05-25T05:43:47.951Z,88.67
2016-05-25T05:44:47.969Z,88.04
2016-05-25T05:45:47.988Z,87.71
2016-05-25T05:46:48.193Z,87.52
2016-05-25T05:47:48.056Z,88
2016-05-25T05:49:02.246Z,87.62
2016-05-25T05:49:48.092Z,87.81
2016-05-25T05:50:48.111Z,87.23
2016-05-25T05:51:48.145Z,87.47
2016-05-25T05:52:48.162Z,88.19
2016-05-25T05:53:48.181Z,86.94
2016-05-25T05:54:48.214Z,87.81
2016-05-25T05:55:48.234Z,87.81
2016-05-25T05:56:50.595Z,87.08
2016-05-25T05:58:48.304Z,86.9
2016-05-25T06:00:48.356Z,87.18
2016-05-25T06:01:48.390Z,87.33
2016-05-25T06:02:48.393Z,87.71
2016-05-25T06:03:48.427Z,88.19
2016-05-25T06:04:48.444Z,86.7
2016-05-25T06:05:48.479Z,86.51
2016-05-25T06:06:48.497Z,86.41
2016-05-25T06:07:48.515Z,85.84
2016-05-25T06:09:48.568Z,85.17
2016-05-25T06:10:48.586Z,85.65
2016-05-25T06:11:48.621Z,85.65
2016-05-25T06:13:48.657Z,85.75
2016-05-25T06:15:48.709Z,86.13
2016-05-25T06:16:48.587Z,85.75
2016-05-25T06:17:48.761Z,86.13
2016-05-25T06:18:48.780Z,85.84
2016-05-25T06:19:48.798Z,86.32
2016-05-25T06:21:03.003Z,86.41
2016-05-25T06:21:48.851Z,85.75
2016-05-25T06:22:50.228Z,85.36
2016-05-25T06:23:48.887Z,85.65
2016-05-25T06:24:48.921Z,85.27
2016-05-25T06:25:48.939Z,85.65
2016-05-25T06:26:48.973Z,84.22
2016-05-25T06:27:48.835Z,84.41
2016-05-25T06:28:49.025Z,84.59
2016-05-25T06:29:49.043Z,84.79
2016-05-25T06:30:49.061Z,84.79
2016-05-25T06:31:49.096Z,85.27
2016-05-25T06:32:48.942Z,85.46
2016-05-25T06:33:49.133Z,85.46
2016-05-25T06:34:48.995Z,85.36
2016-05-25T06:35:49.185Z,84.98
2016-05-25T06:37:03.391Z,84.41
2016-05-25T06:38:49.255Z,84.79
2016-05-25T06:39:49.274Z,84.22
2016-05-25T06:40:49.307Z,84.5
2016-05-25T06:41:49.327Z,84.69
2016-05-25T06:43:49.379Z,84.74
2016-05-25T06:44:49.396Z,84.41
2016-05-25T06:45:49.415Z,85.08
2016-05-25T06:46:49.307Z,84.22
2016-05-25T06:48:49.485Z,84.22
2016-05-25T06:49:49.519Z,84.41
2016-05-25T06:50:49.538Z,84.69
2016-05-25T06:51:49.556Z,83.97
2016-05-25T06:53:03.761Z,84.26
2016-05-25T06:53:49.609Z,84.16
2016-05-25T06:54:49.642Z,83.68
2016-05-25T06:55:49.661Z,83.11
2016-05-25T06:56:49.695Z,83.68
2016-05-25T06:57:49.728Z,83.39
2016-05-25T06:58:49.731Z,82.96
2016-05-25T06:59:49.749Z,82.48
2016-05-25T07:00:49.767Z,82.73
2016-05-25T07:01:49.973Z,82.73
2016-05-25T07:02:49.820Z,83.01
2016-05-25T07:04:49.872Z,84.12
2016-05-25T07:05:49.891Z,84.41
2016-05-25T07:06:49.908Z,84.31
2016-05-25T07:07:50.255Z,84.41
2016-05-25T07:09:04.149Z,84.98
2016-05-25T07:09:49.994Z,84.59
2016-05-25T07:10:50.013Z,84.59
2016-05-25T07:11:50.032Z,84.41
2016-05-25T07:12:50.065Z,84.55
2016-05-25T07:13:50.084Z,84.45
2016-05-25T07:14:50.118Z,84.59
2016-05-25T07:15:50.135Z,84.02
2016-05-25T07:16:50.201Z,84.26
2016-05-25T07:17:50.173Z,83.59
2016-05-25T07:18:50.191Z,83.78
2016-05-25T07:19:50.225Z,83.68
2016-05-25T07:20:50.259Z,83.39
2016-05-25T07:21:50.277Z,82.63
2016-05-25T07:22:50.140Z,82.73
2016-05-25T07:24:04.501Z,83.01
2016-05-25T07:24:50.348Z,82.73
2016-05-25T07:25:50.366Z,82.73
2016-05-25T07:26:50.400Z,82.92
2016-05-25T07:27:50.497Z,82.63
2016-05-25T07:28:50.436Z,82.53
2016-05-25T07:29:50.470Z,82.73
2016-05-25T07:30:50.489Z,81.77
2016-05-25T07:31:51.039Z,82.34
2016-05-25T07:32:50.541Z,82.34
2016-05-25T07:35:50.611Z,82.73
2016-05-25T07:36:50.631Z,82.73
2016-05-25T07:37:50.664Z,83.11
2016-05-25T07:38:50.683Z,83.2
2016-05-25T07:39:50.700Z,83.3
2016-05-25T07:40:50.578Z,82.92
2016-05-25T07:41:50.752Z,82.53
2016-05-25T07:42:50.771Z,82.73
2016-05-25T07:43:50.790Z,82.73
2016-05-25T07:44:50.824Z,82.24
2016-05-25T07:45:50.841Z,82.15
2016-05-25T07:46:50.860Z,81.96
2016-05-25T07:47:51.504Z,82.24
2016-05-25T07:48:50.771Z,82.06
2016-05-25T07:49:50.932Z,81.77
2016-05-25T07:50:50.965Z,81.9
2016-05-25T07:51:50.983Z,81.81
2016-05-25T07:52:51.017Z,81.86
2016-05-25T07:53:51.035Z,82.34
2016-05-25T07:54:51.070Z,82.43
2016-05-25T07:56:05.260Z,81.77
2016-05-25T07:58:51.159Z,82.34
2016-05-25T07:59:51.176Z,82.15
2016-05-25T08:00:51.210Z,82.06
2016-05-25T08:01:51.244Z,81.57
2016-05-25T08:02:51.262Z,81.38
2016-05-25T08:04:51.300Z,80.81
2016-05-25T08:05:51.317Z,80.18
2016-05-25T08:06:51.352Z,80.56
2016-05-25T08:07:52.370Z,79.89
2016-05-25T08:08:51.403Z,80.18
2016-05-25T08:09:51.422Z,79.89
2016-05-25T08:10:51.441Z,79.51
2016-05-25T08:12:05.647Z,79.03
2016-05-25T08:12:51.508Z,78.93
2016-05-25T08:13:51.526Z,79.03
2016-05-25T08:14:51.544Z,78.3
2016-05-25T08:16:51.441Z,78.11
2016-05-25T08:17:51.616Z,76.86
2016-05-25T08:18:51.634Z,76.96
2016-05-25T08:21:51.548Z,77.38
2016-05-25T08:22:52.082Z,76.71
2016-05-25T08:23:51.757Z,76.32
2016-05-25T08:24:51.775Z,76.04
2016-05-25T08:25:51.809Z,76.52
2016-05-25T08:26:51.826Z,76.9
2016-05-25T08:28:06.033Z,76.32
2016-05-25T08:28:51.879Z,75.18
2016-05-25T08:29:51.898Z,74.98
2016-05-25T08:30:51.916Z,75.56
2016-05-25T08:31:52.090Z,76.52
2016-05-25T08:32:53.093Z,75.02
2016-05-25T08:33:52.003Z,74.16
2016-05-25T08:34:52.036Z,74.26
2016-05-25T08:35:52.039Z,73.97
2016-05-25T08:36:52.072Z,73.68
2016-05-25T08:38:52.125Z,73.87
2016-05-25T08:39:52.144Z,74.44
2016-05-25T08:40:52.177Z,73.68
2016-05-25T08:41:52.196Z,75.02
2016-05-25T08:42:52.214Z,75.02
2016-05-25T08:44:06.419Z,74.69
2016-05-25T08:44:52.266Z,75.46
2016-05-25T08:45:52.285Z,75.37
2016-05-25T08:46:52.318Z,75.65
2016-05-25T08:47:53.633Z,76.14
2016-05-25T08:48:52.371Z,76.42
2016-05-25T08:49:52.388Z,75.85
2016-05-25T08:50:52.407Z,75.27
2016-05-25T08:53:52.493Z,74.64
2016-05-25T08:54:52.527Z,75.31
2016-05-25T08:55:52.530Z,74.73
2016-05-25T08:56:52.564Z,75.02
2016-05-25T08:57:53.739Z,74.73
2016-05-25T08:59:06.788Z,74.26
2016-05-25T08:59:52.635Z,73.87
2016-05-25T09:00:52.653Z,73.68
2016-05-25T09:01:53.000Z,74.06
2016-05-25T09:02:55.534Z,74.06
2016-05-25T09:03:52.739Z,73.87
2016-05-25T09:04:52.757Z,73.97
2016-05-25T09:06:52.653Z,73.58
2016-05-25T09:07:55.016Z,74.26
2016-05-25T09:08:52.862Z,73.1
2016-05-25T09:09:52.880Z,73.77
2016-05-25T09:10:52.899Z,73.2
2016-05-25T09:11:52.761Z,73.04
2016-05-25T09:12:54.076Z,73.3
2016-05-25T09:13:52.985Z,72.91
2016-05-25T09:14:53.003Z,72.85
2016-05-25T09:15:53.022Z,72.37
2016-05-25T09:16:53.056Z,73.14
2016-05-25T09:17:53.073Z,73.1
2016-05-25T09:18:53.108Z,73.2
2016-05-25T09:19:53.126Z,73.3
2016-05-25T09:20:53.160Z,73.1
2016-05-25T09:21:53.163Z,72.63
2016-05-25T09:22:55.353Z,72.91
2016-05-25T09:23:53.230Z,73.87
2016-05-25T09:25:53.267Z,74.54
2016-05-25T09:26:53.301Z,74.64
2016-05-25T09:27:53.334Z,74.69
2016-05-25T09:29:53.371Z,74.64
2016-05-25T09:31:07.578Z,75.12
2016-05-25T09:31:53.846Z,74.64
2016-05-25T09:32:55.036Z,74.26
2016-05-25T09:33:53.461Z,73.33
2016-05-25T09:34:53.495Z,72.47
2016-05-25T09:35:53.512Z,72.75
2016-05-25T09:36:53.531Z,72.66
2016-05-25T09:37:56.236Z,73.1
2016-05-25T09:38:53.584Z,73.3
2016-05-25T09:39:53.461Z,74.06
2016-05-25T09:40:53.635Z,74.44
2016-05-25T09:42:53.689Z,73.87
2016-05-25T09:43:53.722Z,73.68
2016-05-25T09:44:53.740Z,73.49
2016-05-25T09:45:53.758Z,73.87
2016-05-25T09:47:07.980Z,73.97
2016-05-25T09:47:53.811Z,74.06
2016-05-25T09:48:53.829Z,73.87
2016-05-25T09:49:53.863Z,73.58
2016-05-25T09:50:53.882Z,72.63
2016-05-25T09:51:53.915Z,72.66
2016-05-25T09:52:53.933Z,73.14
2016-05-25T09:53:53.952Z,73.24
2016-05-25T09:54:53.985Z,73.14
2016-05-25T09:55:54.004Z,72.85
2016-05-25T09:56:54.037Z,71.7
2016-05-25T09:57:56.276Z,71.98
2016-05-25T09:58:54.074Z,73.04
2016-05-25T09:59:54.108Z,72.85
2016-05-25T10:00:54.126Z,71.7
2016-05-25T10:01:54.161Z,71.7
2016-05-25T10:03:08.351Z,71.7
2016-05-25T10:03:54.197Z,72.47
2016-05-25T10:04:54.231Z,72.66
2016-05-25T10:05:54.250Z,71.8
2016-05-25T10:06:54.267Z,72.28
2016-05-25T10:08:54.320Z,72.85
2016-05-25T10:09:54.354Z,72.95
2016-05-25T10:10:54.216Z,73.24
2016-05-25T10:12:54.425Z,72.85
2016-05-25T10:13:54.443Z,72.28
2016-05-25T10:14:54.477Z,72.08
2016-05-25T10:15:54.495Z,72.18
2016-05-25T10:16:54.514Z,71.25
2016-05-25T10:17:54.548Z,71.64
2016-05-25T10:19:08.753Z,72.18
2016-05-25T10:19:54.599Z,72.56
2016-05-25T10:20:54.618Z,72.47
2016-05-25T10:21:54.636Z,72.56
2016-05-25T10:22:54.671Z,72.24
2016-05-25T10:23:54.704Z,73.14
2016-05-25T10:24:54.567Z,72.85
2016-05-25T10:25:58.241Z,72.85
2016-05-25T10:26:54.759Z,72.47
2016-05-25T10:27:54.794Z,73.43
2016-05-25T10:28:54.812Z,73.58
2016-05-25T10:29:54.845Z,73.2
2016-05-25T10:30:54.864Z,73
2016-05-25T10:31:57.913Z,73.77
2016-05-25T10:32:54.995Z,73.77
2016-05-25T10:34:09.122Z,72.56
2016-05-25T10:34:54.953Z,72.95
2016-05-25T10:35:54.987Z,72.75
2016-05-25T10:36:55.020Z,72.28
2016-05-25T10:37:55.039Z,71.8
2016-05-25T10:38:55.057Z,72.02
2016-05-25T10:39:55.106Z,71.7
2016-05-25T10:40:55.109Z,71.35
2016-05-25T10:41:55.144Z,70.2
2016-05-25T10:42:55.162Z,70.39
2016-05-25T10:43:55.180Z,70.1
2016-05-25T10:44:55.057Z,71.51
2016-05-25T10:45:55.232Z,70.45
2016-05-25T10:46:55.266Z,70.97
2016-05-25T10:47:55.285Z,70.87
2016-05-25T10:48:55.303Z,70.78
2016-05-25T10:49:55.336Z,71.61
2016-05-25T10:50:55.355Z,72.47
2016-05-25T10:51:55.374Z,72.66
2016-05-25T10:52:55.252Z,72.56
2016-05-25T10:53:55.426Z,72.37
2016-05-25T10:54:55.460Z,72.18
2016-05-25T10:55:55.478Z,72.37
2016-05-25T10:56:55.512Z,71.8
2016-05-25T10:57:55.530Z,71.7
2016-05-25T10:58:55.548Z,71.8
2016-05-25T11:00:55.601Z,73.2
2016-05-25T11:01:55.478Z,73.2
2016-05-25T11:02:55.497Z,73.58
2016-05-25T11:03:55.671Z,72.63
2016-05-25T11:04:55.706Z,73
2016-05-25T11:06:09.912Z,73.87
2016-05-25T11:06:55.601Z,73.87
2016-05-25T11:07:55.776Z,74.16
2016-05-25T11:08:55.794Z,74.06
2016-05-25T11:09:55.828Z,73.2
2016-05-25T11:10:55.847Z,73.87
2016-05-25T11:11:55.865Z,74.54
2016-05-25T11:12:55.898Z,74.16
2016-05-25T11:13:55.916Z,74.44
2016-05-25T11:14:55.935Z,73.97
2016-05-25T11:15:55.813Z,74.06
2016-05-25T11:16:56.003Z,73.39
2016-05-25T11:17:56.475Z,73.97
2016-05-25T11:18:56.040Z,74.06
2016-05-25T11:19:55.902Z,74.26
2016-05-25T11:20:55.951Z,73.58
2016-05-25T11:22:10.314Z,73.33
2016-05-25T11:22:57.535Z,73.3
2016-05-25T11:23:56.178Z,73.49
2016-05-25T11:24:56.196Z,73.39
2016-05-25T11:25:56.231Z,73.49
2016-05-25T11:26:56.249Z,74.06
2016-05-25T11:27:57.110Z,73.43
2016-05-25T11:28:56.285Z,73.97
2016-05-25T11:30:56.337Z,73.68
2016-05-25T11:31:56.215Z,73.39
2016-05-25T11:32:56.687Z,73.39
2016-05-25T11:33:56.252Z,73.77
2016-05-25T11:34:56.443Z,74.06
2016-05-25T11:35:56.304Z,73.49
2016-05-25T11:36:56.478Z,74.44
2016-05-25T11:38:10.685Z,73.3
2016-05-25T11:38:56.531Z,74.16
2016-05-25T11:39:56.550Z,73.87
2016-05-25T11:40:56.584Z,74.06
2016-05-25T11:41:56.445Z,72.95
2016-05-25T11:42:56.636Z,72.95
2016-05-25T11:43:56.653Z,72.47
2016-05-25T11:44:56.672Z,71.89
2016-05-25T11:45:56.706Z,72.41
2016-05-25T11:46:56.569Z,71.89
2016-05-25T11:47:57.009Z,71.35
2016-05-25T11:48:56.777Z,71.64
2016-05-25T11:49:56.639Z,71.89
2016-05-25T11:50:56.829Z,71.64
2016-05-25T11:51:56.847Z,72.02
2016-05-25T11:52:56.897Z,71.61
2016-05-25T11:54:11.087Z,71.98
2016-05-25T11:54:56.933Z,72.08
2016-05-25T11:55:56.952Z,71.83
2016-05-25T11:56:56.970Z,72.18
2016-05-25T11:57:56.848Z,73.24
2016-05-25T11:58:57.022Z,72.85
2016-05-25T11:59:56.900Z,72.85
2016-05-25T12:00:56.918Z,73.24
2016-05-25T12:01:57.562Z,73.33
2016-05-25T12:02:58.033Z,73.33
2016-05-25T12:03:57.161Z,73.24
2016-05-25T12:04:57.179Z,73.33
2016-05-25T12:05:57.197Z,73.97
2016-05-25T12:06:57.215Z,73.72
2016-05-25T12:07:57.250Z,73.81
2016-05-25T12:09:11.456Z,74.35
2016-05-25T12:09:57.302Z,75.02
2016-05-25T12:10:57.179Z,74.35
2016-05-25T12:11:57.338Z,74.16
2016-05-25T12:12:57.373Z,75.02
2016-05-25T12:13:57.406Z,74.93
2016-05-25T12:14:57.425Z,74.73
2016-05-25T12:15:57.442Z,74.06
2016-05-25T12:16:57.477Z,74.64
2016-05-25T12:17:57.605Z,74.54
2016-05-25T12:20:57.581Z,75.4
2016-05-25T12:21:57.600Z,75.5
2016-05-25T12:22:57.650Z,75.98
2016-05-25T12:23:57.652Z,75.31
2016-05-25T12:24:57.671Z,75.5
2016-05-25T12:25:57.688Z,76.04
2016-05-25T12:26:57.707Z,76.81
2016-05-25T12:27:57.741Z,75.95
2016-05-25T12:28:57.760Z,76.62
2016-05-25T12:29:57.793Z,76.42
2016-05-25T12:30:57.812Z,77.19
2016-05-25T12:31:57.829Z,77.86
2016-05-25T12:32:58.160Z,77.29
2016-05-25T12:33:57.882Z,76.81
2016-05-25T12:34:57.916Z,76.52
2016-05-25T12:35:57.934Z,76.04
2016-05-25T12:36:57.968Z,76.81
2016-05-25T12:37:58.440Z,76.32
2016-05-25T12:38:58.005Z,76.46
2016-05-25T12:39:58.023Z,76.27
2016-05-25T12:41:12.229Z,75.98
2016-05-25T12:41:58.075Z,75.27
2016-05-25T12:42:57.953Z,76.71
2016-05-25T12:43:58.128Z,75.46
2016-05-25T12:44:58.146Z,76.71
2016-05-25T12:45:58.180Z,76.9
2016-05-25T12:47:58.233Z,75.7
2016-05-25T12:48:58.267Z,75.89
2016-05-25T12:49:58.270Z,75.6
2016-05-25T12:50:58.302Z,75.7
2016-05-25T12:51:58.321Z,76.07
2016-05-25T12:53:02.058Z,76.27
2016-05-25T12:53:58.374Z,76.37
2016-05-25T12:54:58.408Z,75.31
2016-05-25T12:55:58.441Z,76.07
2016-05-25T12:57:12.631Z,75.89
2016-05-25T12:57:58.478Z,76.37
2016-05-25T12:58:58.480Z,76.07
2016-05-25T12:59:58.515Z,75.12
2016-05-25T13:00:58.392Z,74.93
2016-05-25T13:01:58.567Z,74.54
2016-05-25T13:02:58.460Z,74.64
2016-05-25T13:03:58.618Z,75.79
2016-05-25T13:05:58.499Z,75.89
2016-05-25T13:06:58.690Z,75.79
2016-05-25T13:07:58.723Z,75.21
2016-05-25T13:08:58.757Z,74.64
2016-05-25T13:09:58.759Z,75.12
2016-05-25T13:10:58.779Z,74.1
2016-05-25T13:11:58.812Z,74.19
2016-05-25T13:13:13.018Z,73.33
2016-05-25T13:13:58.693Z,73.24
2016-05-25T13:14:58.883Z,73.14
2016-05-25T13:15:58.917Z,73.14
2016-05-25T13:16:58.936Z,74.01
2016-05-25T13:18:58.987Z,74.16
2016-05-25T13:19:59.006Z,74.73
2016-05-25T13:20:59.025Z,74.93
2016-05-25T13:22:59.077Z,75.89
2016-05-25T13:23:59.110Z,76.46
2016-05-25T13:24:59.134Z,76.07
2016-05-25T13:25:59.035Z,76.37
2016-05-25T13:26:59.233Z,76.75
2016-05-25T13:27:59.120Z,76.9
2016-05-25T13:29:13.504Z,77.29
2016-05-25T13:29:59.371Z,77
2016-05-25T13:30:59.397Z,76.94
2016-05-25T13:31:59.455Z,77.09
2016-05-25T13:33:59.510Z,77.19
2016-05-25T13:34:59.534Z,77.23
2016-05-25T13:35:59.571Z,77.19
2016-05-25T13:36:59.592Z,77.42
2016-05-25T13:38:00.676Z,77.13
2016-05-25T13:38:59.479Z,76.75
2016-05-25T13:39:59.516Z,77.61
2016-05-25T13:40:59.708Z,77.29
2016-05-25T13:41:59.742Z,77
2016-05-25T13:42:59.747Z,77.09
2016-05-25T13:44:13.953Z,76.84
2016-05-25T13:44:59.973Z,77.42
2016-05-25T13:46:59.854Z,77.13
2016-05-25T13:48:59.907Z,76.84
2016-05-25T13:49:59.925Z,76.94
2016-05-25T13:50:59.944Z,76.46
2016-05-25T13:52:59.996Z,76.37
2016-05-25T13:54:00.030Z,76.17
2016-05-25T13:55:00.049Z,75.31
2016-05-25T13:56:00.066Z,75.98